Time;durP1;ratioP1;P1;durP2;ratioP2;P2;SDS_P1;SDS_P2;PMS_P1;PMS_P2;Temp;Humidity;BMP_temperature;BMP_pressure;BME280_temperature;BME280_humidity;BME280_pressure;Samples;Min_cycle;Max_cycle;Signal;HPM_P1;HPM_P2
2022/01/11 00:00:21;;;;;;;;;;;;;;;;;;5136799;27;19968;-74
2022/01/11 00:02:46;;;;;;;;;;;;;;;;;;5137409;27;19915;-74
2022/01/11 00:05:30;;;;;;;;;;;;;;;;;;5137310;27;19922;-74
2022/01/11 00:07:57;;;;;;;;;;;;;;;;;;5136628;27;19997;-74
2022/01/11 00:10:32;;;;;;;;;;;;;;;;;;5101518;27;20364;-74
2022/01/11 00:13:00;;;;;;;;;;;;;;;;;;5118779;27;20013;-74
2022/01/11 00:15:25;;;;;;;;;;;;;;;;;;5137284;27;19915;-74
2022/01/11 00:17:51;;;;;;;;;;;;;;;;;;5137239;27;19969;-74
2022/01/11 00:20:19;;;;;;;;;;;;;;;;;;5136956;27;19915;-76
2022/01/11 00:25:31;;;;;;;;;;;;;;;;;;5137226;27;19915;-75
2022/01/11 00:27:57;;;;;;;;;;;;;;;;;;5137069;27;20010;-75
2022/01/11 00:30:24;;;;;;;;;;;;;;;;;;5118485;27;19961;-74
2022/01/11 00:32:53;;;;;;;;;;;;;;;;;;5117666;27;19919;-74
2022/01/11 00:35:23;;;;;;;;;;;;;;;;;;5136357;27;19972;-75
2022/01/11 00:37:48;;;;;;;;;;;;;;;;;;5136795;27;19915;-75
2022/01/11 00:40:14;;;;;;;;;;;;;;;;;;5118079;27;20262;-75
2022/01/11 00:42:39;;;;;;;;;;;;;;;;;;5136755;27;19923;-75
2022/01/11 00:45:06;;;;;;;;;;;;;;;;;;5118193;27;19915;-76
2022/01/11 00:47:31;;;;;;;;;;;;;;;;;;5136454;27;19920;-75
2022/01/11 00:49:56;;;;;;;;;;;;;;;;;;5118051;27;20273;-75
2022/01/11 00:52:22;;;;;;;;;;;;;;;;;;5136349;27;19919;-75
2022/01/11 00:54:47;;;;;;;;;;;;;;;;;;5136765;27;19922;-75
2022/01/11 00:57:12;;;;;;;;;;;;;;;;;;5136171;27;19923;-75
2022/01/11 00:59:38;;;;;;;;;;;;;;;;;;5118115;27;20432;-75
2022/01/11 01:02:03;;;;;;;;;;;;;;;;;;5136250;27;19916;-75
2022/01/11 01:04:29;;;;;;;;;;;;;;;;;;5135732;27;19922;-75
2022/01/11 01:06:54;;;;;;;;;;;;;;;;;;5116697;27;19919;-75
2022/01/11 01:09:20;;;;;;;;;;;;;;;;;;5117685;27;20368;-75
2022/01/11 01:11:47;;;;;;;;;;;;;;;;;;5117533;27;19919;-75
2022/01/11 01:14:13;;;;;;;;;;;;;;;;;;5117885;27;20264;-75
2022/01/11 01:16:39;;;;;;;;;;;;;;;;;;5117506;27;19919;-75
2022/01/11 01:19:21;;;;;;;;;;;;;;;;;;5117278;27;19915;-75
2022/01/11 01:21:48;;;;;;;;;;;;;;;;;;5135726;27;19969;-75
2022/01/11 01:24:13;;;;;;;;;;;;;;;;;;5136010;27;20379;-75
2022/01/11 01:26:39;;;;;;;;;;;;;;;;;;5117355;27;19915;-74
2022/01/11 01:29:04;;;;;;;;;;;;;;;;;;5117625;27;19992;-75
2022/01/11 01:31:30;;;;;;;;;;;;;;;;;;5134872;27;19927;-75
2022/01/11 01:33:55;;;;;;;;;;;;;;;;;;5135362;27;20292;-75
2022/01/11 01:36:21;;;;;;;;;;;;;;;;;;5135646;27;19922;-75
2022/01/11 01:38:47;;;;;;;;;;;;;;;;;;5117240;27;19951;-75
2022/01/11 01:41:16;;;;;;;;;;;;;;;;;;5135819;27;19915;-75
2022/01/11 01:43:41;;;;;;;;;;;;;;;;;;5116973;27;19972;-75
2022/01/11 01:46:07;;;;;;;;;;;;;;;;;;5099864;27;19920;-75
2022/01/11 01:48:32;;;;;;;;;;;;;;;;;;5135186;27;19920;-75
2022/01/11 01:50:58;;;;;;;;;;;;;;;;;;5135269;27;20269;-75
2022/01/11 01:53:25;;;;;;;;;;;;;;;;;;5116723;27;21306;-75
2022/01/11 01:55:50;;;;;;;;;;;;;;;;;;5116981;27;20380;-75
2022/01/11 01:58:16;;;;;;;;;;;;;;;;;;5116733;27;20434;-75
2022/01/11 02:00:45;;;;;;;;;;;;;;;;;;5116831;27;20408;-75
2022/01/11 02:03:13;;;;;;;;;;;;;;;;;;5135156;27;19927;-75
2022/01/11 02:05:39;;;;;;;;;;;;;;;;;;5116948;27;19915;-75
2022/01/11 02:08:07;;;;;;;;;;;;;;;;;;5134530;27;19960;-75
2022/01/11 02:10:34;;;;;;;;;;;;;;;;;;5116700;27;20324;-75
2022/01/11 02:13:02;;;;;;;;;;;;;;;;;;5135171;27;19919;-75
2022/01/11 02:15:27;;;;;;;;;;;;;;;;;;5116465;27;19923;-75
2022/01/11 02:17:53;;;;;;;;;;;;;;;;;;5116445;27;20284;-75
2022/01/11 02:20:19;;;;;;;;;;;;;;;;;;5116417;28;19920;-75
2022/01/11 02:22:44;;;;;;;;;;;;;;;;;;5116666;27;19915;-74
2022/01/11 02:25:10;;;;;;;;;;;;;;;;;;5099172;28;19919;-75
2022/01/11 02:27:36;;;;;;;;;;;;;;;;;;5116476;27;20272;-75
2022/01/11 02:30:02;;;;;;;;;;;;;;;;;;5116303;27;19916;-75
2022/01/11 02:32:28;;;;;;;;;;;;;;;;;;5115429;27;19919;-75
2022/01/11 02:34:53;;;;;;;;;;;;;;;;;;5134636;27;19923;-75
2022/01/11 02:37:22;;;;;;;;;;;;;;;;;;5116270;27;19915;-75
2022/01/11 02:39:54;;;;;;;;;;;;;;;;;;5134759;27;20385;-75
2022/01/11 02:42:28;;;;;;;;;;;;;;;;;;5116342;28;19947;-75
2022/01/11 02:44:53;;;;;;;;;;;;;;;;;;5116186;28;19915;-75
2022/01/11 02:47:20;;;;;;;;;;;;;;;;;;5134565;27;19919;-75
2022/01/11 02:49:48;;;;;;;;;;;;;;;;;;5116155;28;19960;-75
2022/01/11 02:52:23;;;;;;;;;;;;;;;;;;5116045;28;20015;-75
2022/01/11 02:54:56;;;;;;;;;;;;;;;;;;5115971;28;19915;-75
2022/01/11 02:57:23;;;;;;;;;;;;;;;;;;5099149;28;19922;-75
2022/01/11 02:59:54;;;;;;;;;;;;;;;;;;5116283;28;19915;-75
2022/01/11 03:02:20;;;;;;;;;;;;;;;;;;5115051;28;20288;-75
2022/01/11 03:04:48;;;;;;;;;;;;;;;;;;5116152;28;19979;-75
2022/01/11 03:07:17;;;;;;;;;;;;;;;;;;5116191;28;20392;-75
2022/01/11 03:10:02;;;;;;;;;;;;;;;;;;5134490;28;19922;-75
2022/01/11 03:12:32;;;;;;;;;;;;;;;;;;5115850;28;20303;-75
2022/01/11 03:14:58;;;;;;;;;;;;;;;;;;5115890;28;19948;-75
2022/01/11 03:17:26;;;;;;;;;;;;;;;;;;5115130;28;19915;-76
2022/01/11 03:19:52;;;;;;;;;;;;;;;;;;5116093;28;19915;-76
2022/01/11 03:22:17;;;;;;;;;;;;;;;;;;5134390;28;20341;-76
2022/01/11 03:24:44;;;;;;;;;;;;;;;;;;5116065;28;20006;-75
2022/01/11 03:27:10;;;;;;;;;;;;;;;;;;5116268;28;20284;-75
2022/01/11 03:29:37;;;;;;;;;;;;;;;;;;5117776;27;19921;-75
2022/01/11 03:32:04;;;;;;;;;;;;;;;;;;5119327;27;20989;-75
2022/01/11 03:34:30;;;;;;;;;;;;;;;;;;5119842;27;20123;-75
2022/01/11 03:36:57;;;;;;;;;;;;;;;;;;5119508;27;20388;-76
2022/01/11 03:39:26;;;;;;;;;;;;;;;;;;5138126;27;20364;-75
2022/01/11 03:41:52;;;;;;;;;;;;;;;;;;5119877;27;20303;-75
2022/01/11 03:44:18;;;;;;;;;;;;;;;;;;5119748;27;19915;-75
2022/01/11 03:46:43;;;;;;;;;;;;;;;;;;5137321;27;19915;-76
2022/01/11 03:49:08;;;;;;;;;;;;;;;;;;5115794;28;19971;-75
2022/01/11 03:51:37;;;;;;;;;;;;;;;;;;5115733;28;19919;-76
2022/01/11 03:54:14;;;;;;;;;;;;;;;;;;5116035;28;20439;-74
2022/01/11 03:56:55;;;;;;;;;;;;;;;;;;5115762;28;19923;-75
2022/01/11 03:59:23;;;;;;;;;;;;;;;;;;5108828;28;19915;-76
2022/01/11 04:01:51;;;;;;;;;;;;;;;;;;5097957;28;19920;-73
2022/01/11 04:04:17;;;;;;;;;;;;;;;;;;5095759;28;19969;-75
2022/01/11 04:06:42;;;;;;;;;;;;;;;;;;5116633;28;19919;-73
2022/01/11 04:09:08;;;;;;;;;;;;;;;;;;5116802;28;19915;-75
2022/01/11 04:11:35;;;;;;;;;;;;;;;;;;5115458;28;19927;-74
2022/01/11 04:14:01;;;;;;;;;;;;;;;;;;5114156;28;19916;-73
2022/01/11 04:16:27;;;;;;;;;;;;;;;;;;5112923;28;20323;-73
2022/01/11 04:18:54;;;;;;;;;;;;;;;;;;5113185;28;20277;-75
2022/01/11 04:21:20;;;;;;;;;;;;;;;;;;5114328;28;19938;-74
2022/01/11 04:23:48;;;;;;;;;;;;;;;;;;5113003;28;19963;-74
2022/01/11 04:26:13;;;;;;;;;;;;;;;;;;5112906;28;19962;-74
2022/01/11 04:28:39;;;;;;;;;;;;;;;;;;5114440;28;19919;-75
2022/01/11 04:31:05;;;;;;;;;;;;;;;;;;5115152;28;19916;-74
2022/01/11 04:33:32;;;;;;;;;;;;;;;;;;5115271;28;20364;-74
2022/01/11 04:36:00;;;;;;;;;;;;;;;;;;5115153;28;19915;-74
2022/01/11 04:38:28;;;;;;;;;;;;;;;;;;5098106;28;19969;-75
2022/01/11 04:40:53;;;;;;;;;;;;;;;;;;5114201;28;20307;-75
2022/01/11 04:43:19;;;;;;;;;;;;;;;;;;5115104;28;19915;-74
2022/01/11 04:45:47;;;;;;;;;;;;;;;;;;5114842;28;19915;-75
2022/01/11 04:48:13;;;;;;;;;;;;;;;;;;5114650;28;19926;-75
2022/01/11 04:50:38;;;;;;;;;;;;;;;;;;5114909;28;19915;-76
2022/01/11 04:53:04;;;;;;;;;;;;;;;;;;5114826;28;20415;-76
2022/01/11 04:55:31;;;;;;;;;;;;;;;;;;5098191;28;19919;-76
2022/01/11 04:57:57;;;;;;;;;;;;;;;;;;5114911;28;20355;-75
2022/01/11 05:00:23;;;;;;;;;;;;;;;;;;5114651;28;19973;-74
2022/01/11 05:02:49;;;;;;;;;;;;;;;;;;5113948;28;19962;-74
2022/01/11 05:05:15;;;;;;;;;;;;;;;;;;5115666;28;20365;-74
2022/01/11 05:07:43;;;;;;;;;;;;;;;;;;5114528;28;20361;-74
2022/01/11 05:10:09;;;;;;;;;;;;;;;;;;5115823;28;19915;-74
2022/01/11 05:12:34;;;;;;;;;;;;;;;;;;5114335;28;19927;-74
2022/01/11 05:15:01;;;;;;;;;;;;;;;;;;5114663;28;20266;-75
2022/01/11 05:17:27;;;;;;;;;;;;;;;;;;5114201;28;20365;-74
2022/01/11 05:19:53;;;;;;;;;;;;;;;;;;5097243;28;19998;-74
2022/01/11 05:22:18;;;;;;;;;;;;;;;;;;5114193;28;19969;-74
2022/01/11 05:24:43;;;;;;;;;;;;;;;;;;5114074;28;19916;-74
2022/01/11 05:27:09;;;;;;;;;;;;;;;;;;5114031;28;19923;-74
2022/01/11 05:29:34;;;;;;;;;;;;;;;;;;5114126;28;20608;-74
2022/01/11 05:32:00;;;;;;;;;;;;;;;;;;5113298;28;19924;-74
2022/01/11 05:34:26;;;;;;;;;;;;;;;;;;5114063;28;19942;-74
2022/01/11 05:36:52;;;;;;;;;;;;;;;;;;5113903;28;19931;-74
2022/01/11 05:39:17;;;;;;;;;;;;;;;;;;5115342;28;19916;-74
2022/01/11 05:41:43;;;;;;;;;;;;;;;;;;5113753;28;19915;-74
2022/01/11 05:44:08;;;;;;;;;;;;;;;;;;5115036;28;19922;-74
2022/01/11 05:46:34;;;;;;;;;;;;;;;;;;5113876;28;19915;-74
2022/01/11 05:48:59;;;;;;;;;;;;;;;;;;5112950;28;20313;-74
2022/01/11 05:51:26;;;;;;;;;;;;;;;;;;5114241;28;19931;-74
2022/01/11 05:53:52;;;;;;;;;;;;;;;;;;5113348;28;20431;-74
2022/01/11 05:56:18;;;;;;;;;;;;;;;;;;5114799;28;19916;-74
2022/01/11 05:58:43;;;;;;;;;;;;;;;;;;5113464;28;20432;-74
2022/01/11 06:01:09;;;;;;;;;;;;;;;;;;5114800;28;19919;-74
2022/01/11 06:03:34;;;;;;;;;;;;;;;;;;5113823;28;19915;-74
2022/01/11 06:06:02;;;;;;;;;;;;;;;;;;5113378;28;19947;-74
2022/01/11 06:08:32;;;;;;;;;;;;;;;;;;5113450;28;19923;-74
2022/01/11 06:10:58;;;;;;;;;;;;;;;;;;5113361;28;20393;-74
2022/01/11 06:13:26;;;;;;;;;;;;;;;;;;5113268;28;20294;-74
2022/01/11 06:15:54;;;;;;;;;;;;;;;;;;5113183;28;20301;-74
2022/01/11 06:18:20;;;;;;;;;;;;;;;;;;5113510;28;19927;-74
2022/01/11 06:21:03;;;;;;;;;;;;;;;;;;5113057;28;19915;-74
2022/01/11 06:23:29;;;;;;;;;;;;;;;;;;5113132;28;20403;-74
2022/01/11 06:25:54;;;;;;;;;;;;;;;;;;5096130;28;19916;-74
2022/01/11 06:28:21;;;;;;;;;;;;;;;;;;5113254;28;20010;-74
2022/01/11 06:30:47;;;;;;;;;;;;;;;;;;5113115;28;19947;-74
2022/01/11 06:33:13;;;;;;;;;;;;;;;;;;5112285;28;19919;-74
2022/01/11 06:35:38;;;;;;;;;;;;;;;;;;5114247;28;19916;-73
2022/01/11 06:38:04;;;;;;;;;;;;;;;;;;5112950;28;19915;-74
2022/01/11 06:40:30;;;;;;;;;;;;;;;;;;5112995;28;19926;-74
2022/01/11 06:42:58;;;;;;;;;;;;;;;;;;5113113;28;19960;-74
2022/01/11 06:45:24;;;;;;;;;;;;;;;;;;5112897;28;20377;-73
2022/01/11 06:47:53;;;;;;;;;;;;;;;;;;5112882;28;19920;-74
2022/01/11 06:50:19;;;;;;;;;;;;;;;;;;5114230;28;19923;-74
2022/01/11 06:52:45;;;;;;;;;;;;;;;;;;5112598;28;19920;-74
2022/01/11 06:55:11;;;;;;;;;;;;;;;;;;5114157;28;20057;-74
2022/01/11 06:57:37;;;;;;;;;;;;;;;;;;5114034;28;20041;-74
2022/01/11 07:00:04;;;;;;;;;;;;;;;;;;5112228;28;19945;-74
2022/01/11 07:02:30;;;;;;;;;;;;;;;;;;5112898;28;19916;-74
2022/01/11 07:05:13;;;;;;;;;;;;;;;;;;5116018;28;19995;-74
2022/01/11 07:07:39;;;;;;;;;;;;;;;;;;5118166;28;19992;-74
2022/01/11 07:10:04;;;;;;;;;;;;;;;;;;5116916;28;20030;-74
2022/01/11 07:12:30;;;;;;;;;;;;;;;;;;5116741;28;19968;-74
2022/01/11 07:14:55;;;;;;;;;;;;;;;;;;5117918;28;20372;-74
2022/01/11 07:17:22;;;;;;;;;;;;;;;;;;5116539;28;19919;-74
2022/01/11 07:19:49;;;;;;;;;;;;;;;;;;5116680;28;20003;-74
2022/01/11 07:22:15;;;;;;;;;;;;;;;;;;5116646;28;19978;-74
2022/01/11 07:24:43;;;;;;;;;;;;;;;;;;5116611;28;19947;-74
2022/01/11 07:27:08;;;;;;;;;;;;;;;;;;5117808;28;19958;-73
2022/01/11 07:29:34;;;;;;;;;;;;;;;;;;5117821;28;19916;-74
2022/01/11 07:31:59;;;;;;;;;;;;;;;;;;5117535;28;19920;-74
2022/01/11 07:34:26;;;;;;;;;;;;;;;;;;5116146;28;19923;-73
2022/01/11 07:36:51;;;;;;;;;;;;;;;;;;5116877;28;19916;-74
2022/01/11 07:39:17;;;;;;;;;;;;;;;;;;5099875;28;19938;-74
2022/01/11 07:41:43;;;;;;;;;;;;;;;;;;5116355;28;19955;-74
2022/01/11 07:44:29;;;;;;;;;;;;;;;;;;5116985;28;19961;-73
2022/01/11 07:46:55;;;;;;;;;;;;;;;;;;5115918;28;19916;-74
2022/01/11 07:49:27;;;;;;;;;;;;;;;;;;5116190;28;19920;-74
2022/01/11 07:51:52;;;;;;;;;;;;;;;;;;5115860;28;20388;-74
2022/01/11 07:54:19;;;;;;;;;;;;;;;;;;5099125;28;19916;-74
2022/01/11 07:56:46;;;;;;;;;;;;;;;;;;5115887;28;20010;-74
2022/01/11 07:59:13;;;;;;;;;;;;;;;;;;5115835;28;19923;-73
2022/01/11 08:01:43;;;;;;;;;;;;;;;;;;5098706;28;19922;-73
2022/01/11 08:04:10;;;;;;;;;;;;;;;;;;5115811;28;20327;-73
2022/01/11 08:06:41;;;;;;;;;;;;;;;;;;5115540;28;19963;-73
2022/01/11 08:09:29;;;;;;;;;;;;;;;;;;5114096;28;20285;-73
2022/01/11 08:11:58;;;;;;;;;;;;;;;;;;5115197;28;19955;-73
2022/01/11 08:14:23;;;;;;;;;;;;;;;;;;5115220;28;19923;-73
2022/01/11 08:16:49;;;;;;;;;;;;;;;;;;5115695;28;20351;-75
2022/01/11 08:19:15;;;;;;;;;;;;;;;;;;5099026;28;19916;-75
2022/01/11 08:21:42;;;;;;;;;;;;;;;;;;5116148;28;19911;-74
2022/01/11 08:24:08;;;;;;;;;;;;;;;;;;5115865;28;20437;-74
2022/01/11 08:26:35;;;;;;;;;;;;;;;;;;5114412;28;19958;-74
2022/01/11 08:29:00;;;;;;;;;;;;;;;;;;5115180;28;19919;-74
2022/01/11 08:31:26;;;;;;;;;;;;;;;;;;5114689;28;19916;-73
2022/01/11 08:33:54;;;;;;;;;;;;;;;;;;5113811;28;19915;-74
2022/01/11 08:36:19;;;;;;;;;;;;;;;;;;5114710;28;19922;-75
2022/01/11 08:38:45;;;;;;;;;;;;;;;;;;5114998;28;20382;-73
2022/01/11 08:41:11;;;;;;;;;;;;;;;;;;5114978;28;19951;-73
2022/01/11 08:43:37;;;;;;;;;;;;;;;;;;5114909;28;19916;-73
2022/01/11 08:46:03;;;;;;;;;;;;;;;;;;5114194;28;19915;-73
2022/01/11 08:48:31;;;;;;;;;;;;;;;;;;5114758;28;19962;-73
2022/01/11 08:51:02;;;;;;;;;;;;;;;;;;5114380;28;19916;-73
2022/01/11 08:53:30;;;;;;;;;;;;;;;;;;5114599;28;19920;-71
2022/01/11 08:55:58;;;;;;;;;;;;;;;;;;5114780;28;19916;-72
2022/01/11 08:58:24;;;;;;;;;;;;;;;;;;5114655;28;19961;-72
2022/01/11 09:00:52;;;;;;;;;;;;;;;;;;5114362;28;19916;-72
2022/01/11 09:03:18;;;;;;;;;;;;;;;;;;5113975;28;19965;-72
2022/01/11 09:05:46;;;;;;;;;;;;;;;;;;5114331;28;19919;-72
2022/01/11 09:08:13;;;;;;;;;;;;;;;;;;5114328;28;19980;-72
2022/01/11 09:10:40;;;;;;;;;;;;;;;;;;5114615;28;20361;-71
2022/01/11 09:13:05;;;;;;;;;;;;;;;;;;5114579;28;19933;-72
2022/01/11 09:15:32;;;;;;;;;;;;;;;;;;5114444;28;19920;-73
2022/01/11 09:18:00;;;;;;;;;;;;;;;;;;5115273;28;19915;-74
2022/01/11 09:20:26;;;;;;;;;;;;;;;;;;5115102;28;20403;-74
2022/01/11 09:22:51;;;;;;;;;;;;;;;;;;5114008;28;19916;-73
2022/01/11 09:25:18;;;;;;;;;;;;;;;;;;5114162;28;19915;-74
2022/01/11 09:27:52;;;;;;;;;;;;;;;;;;5113178;28;19955;-74
2022/01/11 09:30:20;;;;;;;;;;;;;;;;;;5113931;28;19960;-73
2022/01/11 09:32:49;;;;;;;;;;;;;;;;;;5113337;28;19919;-73
2022/01/11 09:35:15;;;;;;;;;;;;;;;;;;5113974;28;19922;-73
2022/01/11 09:37:45;;;;;;;;;;;;;;;;;;5113902;28;19923;-73
2022/01/11 09:40:11;;;;;;;;;;;;;;;;;;5104837;28;19959;-73
2022/01/11 09:42:39;;;;;;;;;;;;;;;;;;5102475;28;19981;-73
2022/01/11 09:45:09;;;;;;;;;;;;;;;;;;5102402;28;19916;-73
2022/01/11 09:47:40;;;;;;;;;;;;;;;;;;5101918;28;19927;-73
2022/01/11 09:50:07;;;;;;;;;;;;;;;;;;5104857;28;19971;-73
2022/01/11 09:52:33;;;;;;;;;;;;;;;;;;5103001;28;20008;-73
2022/01/11 09:54:58;;;;;;;;;;;;;;;;;;5104497;28;19978;-73
2022/01/11 09:57:27;;;;;;;;;;;;;;;;;;5087340;28;20416;-73
2022/01/11 10:00:11;;;;;;;;;;;;;;;;;;5103732;28;19916;-73
2022/01/11 10:02:43;;;;;;;;;;;;;;;;;;5107100;28;19958;-72
2022/01/11 10:05:22;;;;;;;;;;;;;;;;;;5088674;28;19927;-72
2022/01/11 10:07:52;;;;;;;;;;;;;;;;;;5102435;28;19956;-72
2022/01/11 10:10:22;;;;;;;;;;;;;;;;;;5104155;28;19954;-71
2022/01/11 10:12:50;;;;;;;;;;;;;;;;;;5101962;28;19920;-72
2022/01/11 10:15:28;;;;;;;;;;;;;;;;;;5103911;28;19919;-71
2022/01/11 10:17:54;;;;;;;;;;;;;;;;;;5109299;28;19915;-71
2022/01/11 10:20:24;;;;;;;;;;;;;;;;;;5109603;28;19916;-71
2022/01/11 10:23:31;;;;;;;;;;;;;;;;;;5103958;28;19920;-72
2022/01/11 10:25:56;;;;;;;;;;;;;;;;;;5114614;28;20010;-75
2022/01/11 10:28:34;;;;;;;;;;;;;;;;;;5113276;28;19916;-72
2022/01/11 10:31:00;;;;;;;;;;;;;;;;;;5113208;28;19946;-70
2022/01/11 10:33:25;;;;;;;;;;;;;;;;;;5112222;28;19951;-71
2022/01/11 10:35:51;;;;;;;;;;;;;;;;;;5112974;28;19923;-71
2022/01/11 10:38:37;;;;;;;;;;;;;;;;;;5113708;28;19915;-71
2022/01/11 10:41:35;;;;;;;;;;;;;;;;;;5112699;28;19915;-72
2022/01/11 10:44:00;;;;;;;;;;;;;;;;;;5112923;28;19916;-71
2022/01/11 10:46:41;;;;;;;;;;;;;;;;;;5112794;28;19969;-71
2022/01/11 10:49:09;;;;;;;;;;;;;;;;;;5112606;28;20250;-71
2022/01/11 10:51:34;;;;;;;;;;;;;;;;;;5112466;28;19969;-71
2022/01/11 10:53:59;;;;;;;;;;;;;;;;;;5112436;28;19915;-71
2022/01/11 10:56:37;;;;;;;;;;;;;;;;;;5112536;28;19920;-71
2022/01/11 10:59:04;;;;;;;;;;;;;;;;;;5112670;28;19915;-71
2022/01/11 11:01:32;;;;;;;;;;;;;;;;;;5114080;28;19916;-71
2022/01/11 11:03:57;;;;;;;;;;;;;;;;;;5112591;28;19916;-71
2022/01/11 11:06:25;;;;;;;;;;;;;;;;;;5112741;28;19929;-71
2022/01/11 11:08:50;;;;;;;;;;;;;;;;;;5112577;28;19916;-74
2022/01/11 11:11:26;;;;;;;;;;;;;;;;;;5112579;28;19915;-74
2022/01/11 11:14:17;;;;;;;;;;;;;;;;;;5111706;28;20373;-74
2022/01/11 11:16:54;;;;;;;;;;;;;;;;;;5111855;28;19919;-74
2022/01/11 11:19:22;;;;;;;;;;;;;;;;;;5112726;28;19968;-73
2022/01/11 11:22:00;;;;;;;;;;;;;;;;;;5112691;28;19939;-74
2022/01/11 11:24:25;;;;;;;;;;;;;;;;;;5113873;28;20358;-73
2022/01/11 11:26:51;;;;;;;;;;;;;;;;;;5112394;28;19970;-72
2022/01/11 11:29:18;;;;;;;;;;;;;;;;;;5113906;28;19954;-74
2022/01/11 11:31:44;;;;;;;;;;;;;;;;;;5113483;28;19919;-72
2022/01/11 11:34:10;;;;;;;;;;;;;;;;;;5113861;28;20053;-74
2022/01/11 11:36:36;;;;;;;;;;;;;;;;;;5095723;28;19923;-76
2022/01/11 11:39:06;;;;;;;;;;;;;;;;;;5114585;28;19916;-77
2022/01/11 11:41:32;;;;;;;;;;;;;;;;;;5114046;28;19920;-76
2022/01/11 11:44:14;;;;;;;;;;;;;;;;;;5114415;28;19916;-77
2022/01/11 11:46:43;;;;;;;;;;;;;;;;;;5116073;28;19959;-78
2022/01/11 11:49:08;;;;;;;;;;;;;;;;;;5133040;27;19994;-78
2022/01/11 11:51:41;;;;;;;;;;;;;;;;;;5138354;27;19979;-77
2022/01/11 11:54:16;;;;;;;;;;;;;;;;;;5140681;27;19924;-77
2022/01/11 11:56:46;;;;;;;;;;;;;;;;;;5137778;27;19919;-75
2022/01/11 11:59:11;;;;;;;;;;;;;;;;;;5137870;27;19971;-76
2022/01/11 12:01:44;;;;;;;;;;;;;;;;;;5138950;27;20000;-73
2022/01/11 12:04:16;;;;;;;;;;;;;;;;;;5137631;27;19922;-72
2022/01/11 12:06:43;;;;;;;;;;;;;;;;;;5118965;27;20383;-73
2022/01/11 12:09:17;;;;;;;;;;;;;;;;;;5118345;27;19915;-73
2022/01/11 12:11:45;;;;;;;;;;;;;;;;;;5137431;27;19915;-73
2022/01/11 12:14:30;;;;;;;;;;;;;;;;;;5137374;27;19919;-73
2022/01/11 12:16:55;;;;;;;;;;;;;;;;;;5118996;27;19919;-73
2022/01/11 12:19:39;;;;;;;;;;;;;;;;;;5137265;27;20420;-73
2022/01/11 12:22:07;;;;;;;;;;;;;;;;;;5136630;27;19954;-73
2022/01/11 12:24:33;;;;;;;;;;;;;;;;;;5137234;27;19915;-73
2022/01/11 12:27:01;;;;;;;;;;;;;;;;;;5137089;27;20348;-73
2022/01/11 12:29:27;;;;;;;;;;;;;;;;;;5137202;27;19958;-73
2022/01/11 12:31:57;;;;;;;;;;;;;;;;;;5118757;27;19949;-74
2022/01/11 12:34:41;;;;;;;;;;;;;;;;;;5136876;27;20009;-73
2022/01/11 12:37:06;;;;;;;;;;;;;;;;;;5136864;27;19916;-74
2022/01/11 12:39:32;;;;;;;;;;;;;;;;;;5137182;27;20299;-73
2022/01/11 12:41:58;;;;;;;;;;;;;;;;;;5137037;27;19960;-73
2022/01/11 12:45:35;;;;;;;;;;;;;;;;;;5136621;27;19919;-74
2022/01/11 12:47:17;;;;;;;;;;;;;;;;;;5135729;27;19915;-74
2022/01/11 12:50:01;;;;;;;;;;;;;;;;;;5136823;27;19915;-74
2022/01/11 12:52:27;;;;;;;;;;;;;;;;;;5136482;27;19920;-73
2022/01/11 12:54:56;;;;;;;;;;;;;;;;;;5136300;27;19968;-73
2022/01/11 12:57:22;;;;;;;;;;;;;;;;;;5136435;27;20025;-74
2022/01/11 12:59:52;;;;;;;;;;;;;;;;;;5135672;27;20380;-73
2022/01/11 13:02:19;;;;;;;;;;;;;;;;;;5135334;27;19915;-74
2022/01/11 13:04:57;;;;;;;;;;;;;;;;;;5136361;27;20410;-73
2022/01/11 13:07:23;;;;;;;;;;;;;;;;;;5136062;27;19950;-73
2022/01/11 13:10:07;;;;;;;;;;;;;;;;;;5136481;27;19922;-73
2022/01/11 13:12:35;;;;;;;;;;;;;;;;;;5136322;27;19919;-73
2022/01/11 13:15:10;;;;;;;;;;;;;;;;;;5136256;27;19915;-74
2022/01/11 13:17:48;;;;;;;;;;;;;;;;;;5136204;27;20357;-73
2022/01/11 13:20:14;;;;;;;;;;;;;;;;;;5135955;27;20449;-73
2022/01/11 13:22:54;;;;;;;;;;;;;;;;;;5136254;27;19911;-74
2022/01/11 13:25:40;;;;;;;;;;;;;;;;;;5135875;27;20368;-73
2022/01/11 13:28:05;;;;;;;;;;;;;;;;;;5135554;27;19915;-74
2022/01/11 13:30:38;;;;;;;;;;;;;;;;;;5135880;27;19964;-74
2022/01/11 13:33:04;;;;;;;;;;;;;;;;;;5135786;27;20292;-73
2022/01/11 13:35:29;;;;;;;;;;;;;;;;;;5117230;27;19912;-73
2022/01/11 13:37:55;;;;;;;;;;;;;;;;;;5135768;27;19915;-74
2022/01/11 13:40:29;;;;;;;;;;;;;;;;;;5135567;27;19926;-74
2022/01/11 13:43:01;;;;;;;;;;;;;;;;;;5116363;27;19915;-73
2022/01/11 13:45:37;;;;;;;;;;;;;;;;;;5116761;27;19915;-72
2022/01/11 13:48:12;;;;;;;;;;;;;;;;;;5135133;27;19975;-73
2022/01/11 13:50:52;;;;;;;;;;;;;;;;;;5135726;27;19915;-73
2022/01/11 13:53:21;;;;;;;;;;;;;;;;;;5135458;27;20007;-74
2022/01/11 13:55:48;;;;;;;;;;;;;;;;;;5135349;27;19923;-74
2022/01/11 13:58:15;;;;;;;;;;;;;;;;;;5135468;27;19951;-73
2022/01/11 14:00:41;;;;;;;;;;;;;;;;;;5135028;27;19916;-73
2022/01/11 14:03:14;;;;;;;;;;;;;;;;;;5135288;27;19937;-72
2022/01/11 14:05:39;;;;;;;;;;;;;;;;;;5116761;27;20356;-73
2022/01/11 14:08:08;;;;;;;;;;;;;;;;;;5135030;27;19915;-72
2022/01/11 14:10:37;;;;;;;;;;;;;;;;;;5116521;27;20398;-73
2022/01/11 14:13:04;;;;;;;;;;;;;;;;;;5134875;27;19955;-73
2022/01/11 14:15:30;;;;;;;;;;;;;;;;;;5135240;27;19954;-72
2022/01/11 14:17:56;;;;;;;;;;;;;;;;;;5135148;27;19958;-73
2022/01/11 14:20:22;;;;;;;;;;;;;;;;;;5135158;27;19919;-73
2022/01/11 14:22:49;;;;;;;;;;;;;;;;;;5134994;27;19915;-73
2022/01/11 14:25:31;;;;;;;;;;;;;;;;;;5134993;27;19955;-73
2022/01/11 14:28:04;;;;;;;;;;;;;;;;;;5135042;27;20310;-72
2022/01/11 14:30:33;;;;;;;;;;;;;;;;;;5134854;27;19962;-72
2022/01/11 14:32:58;;;;;;;;;;;;;;;;;;5134739;27;19988;-73
2022/01/11 14:35:25;;;;;;;;;;;;;;;;;;5134033;27;20299;-72
2022/01/11 14:38:00;;;;;;;;;;;;;;;;;;5134810;27;19916;-73
2022/01/11 14:40:29;;;;;;;;;;;;;;;;;;5134968;27;20376;-73
2022/01/11 14:43:09;;;;;;;;;;;;;;;;;;5134946;27;20303;-73
2022/01/11 14:45:38;;;;;;;;;;;;;;;;;;5134901;28;19973;-72
2022/01/11 14:48:04;;;;;;;;;;;;;;;;;;5134555;27;20015;-73
2022/01/11 14:50:29;;;;;;;;;;;;;;;;;;5134851;28;19965;-72
2022/01/11 14:52:55;;;;;;;;;;;;;;;;;;5134168;28;19944;-72
2022/01/11 14:55:20;;;;;;;;;;;;;;;;;;5134806;28;19950;-73
2022/01/11 14:57:46;;;;;;;;;;;;;;;;;;5134505;27;19922;-73
2022/01/11 15:00:25;;;;;;;;;;;;;;;;;;5134653;28;19969;-72
2022/01/11 15:02:50;;;;;;;;;;;;;;;;;;5116520;28;20017;-73
2022/01/11 15:05:20;;;;;;;;;;;;;;;;;;5133845;28;19950;-72
2022/01/11 15:07:45;;;;;;;;;;;;;;;;;;5134719;27;19968;-72
2022/01/11 15:10:11;;;;;;;;;;;;;;;;;;5134756;28;19919;-73
2022/01/11 15:12:40;;;;;;;;;;;;;;;;;;5134604;28;20357;-73
2022/01/11 15:15:05;;;;;;;;;;;;;;;;;;5134677;28;19916;-73
2022/01/11 15:17:31;;;;;;;;;;;;;;;;;;5134588;27;19972;-73
2022/01/11 15:19:58;;;;;;;;;;;;;;;;;;5134502;28;19960;-73
2022/01/11 15:22:23;;;;;;;;;;;;;;;;;;5134622;28;19998;-72
2022/01/11 15:24:48;;;;;;;;;;;;;;;;;;5135393;27;20014;-73
2022/01/11 15:27:14;;;;;;;;;;;;;;;;;;5138393;27;19919;-73
2022/01/11 15:29:39;;;;;;;;;;;;;;;;;;5138151;27;19919;-73
2022/01/11 15:32:05;;;;;;;;;;;;;;;;;;5137547;27;19974;-72
2022/01/11 15:34:30;;;;;;;;;;;;;;;;;;5138712;27;19915;-72
2022/01/11 15:36:56;;;;;;;;;;;;;;;;;;5138337;27;19915;-73
2022/01/11 15:39:22;;;;;;;;;;;;;;;;;;5138390;27;19923;-73
2022/01/11 15:41:47;;;;;;;;;;;;;;;;;;5138279;27;20339;-73
2022/01/11 15:44:13;;;;;;;;;;;;;;;;;;5138137;27;19941;-73
2022/01/11 15:46:40;;;;;;;;;;;;;;;;;;5119637;27;19951;-72
2022/01/11 15:49:06;;;;;;;;;;;;;;;;;;5119487;27;19919;-73
2022/01/11 15:51:31;;;;;;;;;;;;;;;;;;5138012;27;19934;-73
2022/01/11 15:53:58;;;;;;;;;;;;;;;;;;5137956;27;20299;-73
2022/01/11 15:56:23;;;;;;;;;;;;;;;;;;5119421;27;19922;-73
2022/01/11 15:58:48;;;;;;;;;;;;;;;;;;5137750;27;19923;-72
2022/01/11 16:01:14;;;;;;;;;;;;;;;;;;5137084;27;19923;-72
2022/01/11 16:03:39;;;;;;;;;;;;;;;;;;5137844;27;19915;-73
2022/01/11 16:06:04;;;;;;;;;;;;;;;;;;5137747;27;19915;-72
2022/01/11 16:08:30;;;;;;;;;;;;;;;;;;5137031;27;19915;-73
2022/01/11 16:10:57;;;;;;;;;;;;;;;;;;5119199;27;19923;-73
2022/01/11 16:13:23;;;;;;;;;;;;;;;;;;5137160;27;20380;-72
2022/01/11 16:15:48;;;;;;;;;;;;;;;;;;5119260;27;19915;-74
2022/01/11 16:18:15;;;;;;;;;;;;;;;;;;5136647;27;20433;-72
2022/01/11 16:20:41;;;;;;;;;;;;;;;;;;5137129;27;19968;-72
2022/01/11 16:23:06;;;;;;;;;;;;;;;;;;5137270;27;19919;-72
2022/01/11 16:25:32;;;;;;;;;;;;;;;;;;5137164;27;19919;-73
2022/01/11 16:27:58;;;;;;;;;;;;;;;;;;5137557;27;20308;-72
2022/01/11 16:30:26;;;;;;;;;;;;;;;;;;5137309;27;19915;-73
2022/01/11 16:32:52;;;;;;;;;;;;;;;;;;5136262;27;19923;-72
2022/01/11 16:35:17;;;;;;;;;;;;;;;;;;5137037;27;20014;-72
2022/01/11 16:37:43;;;;;;;;;;;;;;;;;;5137046;27;19942;-73
2022/01/11 16:40:19;;;;;;;;;;;;;;;;;;5136615;27;19923;-72
2022/01/11 16:42:48;;;;;;;;;;;;;;;;;;5136855;27;20013;-73
2022/01/11 16:45:17;;;;;;;;;;;;;;;;;;5136650;27;19922;-73
2022/01/11 16:47:44;;;;;;;;;;;;;;;;;;5136692;27;19919;-72
2022/01/11 16:50:10;;;;;;;;;;;;;;;;;;5136773;27;19915;-73
2022/01/11 16:52:35;;;;;;;;;;;;;;;;;;5136617;27;19966;-72
2022/01/11 16:55:01;;;;;;;;;;;;;;;;;;5136580;27;20011;-72